< < Back
Terminal Aerodrome Forecast


Current Version              Previous Versions:   1  2  3  4  5  6  7  8  9  

Terminal Aerodrome Forecast

491
FTUS44 KBMX 241100
TAFTCL
TAF
KTCL 241120Z 2412/2512 VRB04KT P6SM BKN250
     FM241600 33006KT P6SM SKC
     FM250100 00000KT P6SM SKC=



Latest METAR

602
SAUS70 KWBC 251500 RRI
MTRTCL
METAR KTCL 251453Z 00000KT 10SM CLR 17/10 A3014 RMK AO2 SLP205 T01720100
50006


USA.gov is the U.S. government's official web portal to all federal, state and local government web resources and services.